createdAt,value
2023-02-13T00:00:04.273Z,103124.56
2023-02-13T00:03:06.785Z,103116.09
2023-02-13T00:06:09.496Z,103125.75
2023-02-13T00:09:11.639Z,103121.09
2023-02-13T00:12:13.782Z,103126.06
2023-02-13T00:15:15.766Z,103106.28
2023-02-13T00:18:17.937Z,103111.78
2023-02-13T00:21:20.000Z,103112.94
2023-02-13T00:24:22.111Z,103123.13
2023-02-13T00:27:24.203Z,103115.13
2023-02-13T00:30:27.458Z,103121.72
2023-02-13T00:33:30.453Z,103124.41
2023-02-13T00:36:32.592Z,103108.72
2023-02-13T00:39:34.579Z,103106.72
2023-02-13T00:42:36.752Z,103105.03
2023-02-13T00:45:38.725Z,103097.59
2023-02-13T00:48:41.161Z,103092.34
2023-02-13T00:51:43.249Z,103095.50
2023-02-13T00:54:46.870Z,103102.72
2023-02-13T00:57:48.940Z,103100.13
2023-02-13T01:00:52.836Z,103109.25
2023-02-13T01:03:54.940Z,103102.09
2023-02-13T01:06:56.979Z,103103.81
2023-02-13T01:09:59.001Z,103101.69
2023-02-13T01:13:02.190Z,103098.56
2023-02-13T01:16:04.790Z,103099.94
2023-02-13T01:19:06.986Z,103098.91
2023-02-13T01:22:09.685Z,103097.72
2023-02-13T01:25:11.819Z,103093.03
2023-02-13T01:28:14.401Z,103103.25
2023-02-13T01:31:17.206Z,103108.81
2023-02-13T01:34:19.415Z,103109.66
2023-02-13T01:37:21.452Z,103092.41
2023-02-13T01:40:23.433Z,103095.69
2023-02-13T01:43:50.509Z,103096.53
2023-02-13T01:46:52.587Z,103089.22
2023-02-13T01:50:11.391Z,103085.22
2023-02-13T01:53:34.052Z,103080.91
2023-02-13T01:56:40.989Z,103077.28
2023-02-13T01:59:53.192Z,103079.84
2023-02-13T02:03:05.345Z,103080.78
2023-02-13T02:06:11.652Z,103076.16
2023-02-13T02:09:22.807Z,103081.47
2023-02-13T02:12:32.330Z,103073.28
2023-02-13T02:15:35.212Z,103082.75
2023-02-13T02:18:39.203Z,103080.47
2023-02-13T02:22:12.855Z,103076.16
2023-02-13T02:25:45.744Z,103079.41
2023-02-13T02:29:03.018Z,103076.28
2023-02-13T02:32:23.591Z,103075.53
2023-02-13T02:35:40.543Z,103070.47
2023-02-13T02:39:10.183Z,103076.63
2023-02-13T02:42:21.314Z,103078.69
2023-02-13T02:45:31.976Z,103087.00
2023-02-13T02:49:21.703Z,103089.06
2023-02-13T02:52:48.876Z,103061.56
2023-02-13T02:56:19.054Z,103089.47
2023-02-13T02:59:41.567Z,103078.81
2023-02-13T03:03:01.939Z,103076.63
2023-02-13T03:06:12.114Z,103084.28
2023-02-13T03:09:40.051Z,103056.41
2023-02-13T03:13:09.785Z,103085.69
2023-02-13T03:16:42.625Z,103086.34
2023-02-13T03:20:26.051Z,103084.50
2023-02-13T03:23:36.304Z,103071.72
2023-02-13T03:27:09.403Z,103084.06
2023-02-13T03:30:24.479Z,103076.63
2023-02-13T03:33:26.438Z,103079.66
2023-02-13T03:37:18.754Z,103074.81
2023-02-13T03:41:04.654Z,103085.38
2023-02-13T03:44:15.996Z,103080.19
2023-02-13T03:47:18.167Z,103081.56
2023-02-13T03:50:20.255Z,103075.03
2023-02-13T03:53:24.668Z,103103.13
2023-02-13T03:56:47.522Z,103098.50
2023-02-13T03:59:49.821Z,103089.78
2023-02-13T04:03:01.354Z,103090.97
2023-02-13T04:06:21.207Z,103094.19
2023-02-13T04:09:27.274Z,103100.78
2023-02-13T04:12:37.822Z,103102.06
2023-02-13T04:16:06.362Z,103105.56
2023-02-13T04:19:10.049Z,103102.69
2023-02-13T04:22:12.540Z,103099.22
2023-02-13T04:25:17.648Z,103098.47
2023-02-13T04:28:19.887Z,103094.69
2023-02-13T04:31:22.765Z,103095.22
2023-02-13T04:34:24.920Z,103092.53
2023-02-13T04:37:27.057Z,103093.50
2023-02-13T04:40:29.094Z,103087.47
2023-02-13T04:43:31.113Z,103085.56
2023-02-13T04:46:33.222Z,103084.09
2023-02-13T04:49:35.255Z,103099.91
2023-02-13T04:52:37.652Z,103105.38
2023-02-13T04:55:39.645Z,103097.22
2023-02-13T04:58:42.169Z,103089.53
2023-02-13T05:01:44.304Z,103086.91
2023-02-13T05:04:46.463Z,103075.69
2023-02-13T05:07:48.666Z,103088.31
2023-02-13T05:10:50.746Z,103091.09
2023-02-13T05:13:52.698Z,103078.75
2023-02-13T05:16:54.827Z,103085.47
2023-02-13T05:19:56.925Z,103074.94
2023-02-13T05:23:18.139Z,103060.81
2023-02-13T05:26:20.296Z,103083.63
2023-02-13T05:29:25.433Z,103069.94
2023-02-13T05:32:27.491Z,103065.50
2023-02-13T05:35:29.821Z,103060.44
2023-02-13T05:38:31.835Z,103061.34
2023-02-13T05:41:34.281Z,103070.97
2023-02-13T05:44:36.273Z,103076.91
2023-02-13T05:47:38.275Z,103072.19
2023-02-13T05:50:40.397Z,103066.50
2023-02-13T05:53:42.398Z,103064.09
2023-02-13T05:56:44.641Z,103073.31
2023-02-13T05:59:46.821Z,103033.31
2023-02-13T06:02:59.031Z,103056.72
2023-02-13T06:06:01.148Z,103061.22
2023-02-13T06:09:03.605Z,103059.94
2023-02-13T06:12:05.994Z,103046.63
2023-02-13T06:15:08.293Z,103057.72
2023-02-13T06:18:10.982Z,103059.34
2023-02-13T06:21:13.055Z,103061.00
2023-02-13T06:24:15.175Z,103052.84
2023-02-13T06:27:17.157Z,103058.19
2023-02-13T06:30:20.076Z,103058.03
2023-02-13T06:33:21.983Z,103057.63
2023-02-13T06:36:23.938Z,103037.00
2023-02-13T06:39:25.920Z,103024.44
2023-02-13T06:42:28.051Z,103051.81
2023-02-13T06:45:30.053Z,103045.22
2023-02-13T06:48:32.273Z,103045.69
2023-02-13T06:51:34.428Z,103046.19
2023-02-13T06:54:46.874Z,103051.78
2023-02-13T06:57:49.698Z,103040.84
2023-02-13T07:00:52.546Z,103044.59
2023-02-13T07:03:54.726Z,103054.56
2023-02-13T07:06:57.496Z,103049.19
2023-02-13T07:10:00.695Z,103050.28
2023-02-13T07:13:06.096Z,103036.69
2023-02-13T07:16:08.422Z,103044.63
2023-02-13T07:19:11.840Z,103044.25
2023-02-13T07:22:13.882Z,103025.00
2023-02-13T07:25:16.003Z,103030.91
2023-02-13T07:28:18.048Z,103021.53
2023-02-13T07:31:20.230Z,103021.78
2023-02-13T07:34:23.633Z,103018.06
2023-02-13T07:37:28.646Z,103026.44
2023-02-13T07:40:31.229Z,103019.06
2023-02-13T07:43:33.780Z,103010.41
2023-02-13T07:46:37.556Z,103019.50
2023-02-13T07:49:39.754Z,103023.31
2023-02-13T07:52:41.745Z,103020.25
2023-02-13T07:55:44.137Z,103014.59
2023-02-13T07:58:46.313Z,103010.56
2023-02-13T08:01:49.550Z,103014.34
2023-02-13T08:04:51.768Z,103008.13
2023-02-13T08:07:54.026Z,103005.13
2023-02-13T08:11:15.285Z,102993.81
2023-02-13T08:14:17.515Z,103008.88
2023-02-13T08:17:19.506Z,102997.50
2023-02-13T08:20:21.897Z,102997.69
2023-02-13T08:23:23.988Z,102990.88
2023-02-13T08:26:26.121Z,103006.63
2023-02-13T08:29:28.127Z,103010.47
2023-02-13T08:32:30.308Z,103002.78
2023-02-13T08:35:32.453Z,102982.69
2023-02-13T08:38:34.718Z,102999.88
2023-02-13T08:41:36.822Z,103000.41
2023-02-13T08:44:41.137Z,102998.06
2023-02-13T08:47:43.230Z,102924.72
2023-02-13T08:50:45.209Z,102991.69
2023-02-13T08:53:47.658Z,102986.56
2023-02-13T08:56:49.669Z,102982.41
2023-02-13T08:59:51.588Z,102984.44
2023-02-13T09:02:53.643Z,102970.75
2023-02-13T09:05:59.693Z,102979.91
2023-02-13T09:09:02.109Z,102983.44
2023-02-13T09:12:04.271Z,102980.13
2023-02-13T09:15:06.434Z,102979.56
2023-02-13T09:18:08.585Z,102975.06
2023-02-13T09:21:12.797Z,102964.97
2023-02-13T09:24:14.886Z,102953.63
2023-02-13T09:27:16.890Z,102965.78
2023-02-13T09:30:23.963Z,102961.13
2023-02-13T09:33:27.194Z,102952.50
2023-02-13T09:36:29.208Z,102961.47
2023-02-13T09:39:31.457Z,102961.00
2023-02-13T09:42:37.195Z,102952.44
2023-02-13T09:45:39.800Z,102961.38
2023-02-13T09:48:45.590Z,102957.28
2023-02-13T09:51:56.209Z,102952.88
2023-02-13T09:54:58.357Z,102952.47
2023-02-13T09:58:24.176Z,102956.28
2023-02-13T10:01:33.070Z,102953.25
2023-02-13T10:04:57.077Z,102940.38
2023-02-13T10:08:20.688Z,102940.13
2023-02-13T10:11:28.436Z,102927.94
2023-02-13T10:14:42.646Z,102930.66
2023-02-13T10:17:55.201Z,102908.50
2023-02-13T10:21:02.469Z,102916.44
2023-02-13T10:24:14.850Z,102911.13
2023-02-13T10:27:25.284Z,102898.38
2023-02-13T10:30:39.511Z,102887.59
2023-02-13T10:34:00.828Z,102879.28
2023-02-13T10:37:04.355Z,102876.50
2023-02-13T10:40:13.681Z,102860.38
2023-02-13T10:43:21.048Z,102870.53
2023-02-13T10:46:36.852Z,102863.81
2023-02-13T10:49:47.704Z,102861.16
2023-02-13T10:53:13.085Z,102851.97
2023-02-13T10:56:20.808Z,102846.06
2023-02-13T10:59:31.723Z,102838.06
2023-02-13T11:02:34.970Z,102828.13
2023-02-13T11:05:39.689Z,102802.31
2023-02-13T11:08:46.013Z,102824.00
2023-02-13T11:11:48.118Z,102813.50
2023-02-13T11:14:58.900Z,102812.38
2023-02-13T11:18:12.568Z,102802.22
2023-02-13T11:21:22.502Z,102785.56
2023-02-13T11:24:26.819Z,102800.00
2023-02-13T11:27:33.753Z,102791.28
2023-02-13T11:30:38.561Z,102799.31
2023-02-13T11:33:40.851Z,102791.41
2023-02-13T11:36:43.042Z,102792.69
2023-02-13T11:39:50.145Z,102787.16
2023-02-13T11:42:53.074Z,102789.25
2023-02-13T11:46:14.666Z,102778.63
2023-02-13T11:49:22.158Z,102763.81
2023-02-13T11:52:28.217Z,102747.28
2023-02-13T11:55:36.513Z,102759.06
2023-02-13T11:58:39.677Z,102747.09
2023-02-13T12:01:43.072Z,102748.72
2023-02-13T12:04:46.288Z,102747.09
2023-02-13T12:07:48.782Z,102724.81
2023-02-13T12:10:51.104Z,102731.19
2023-02-13T12:13:53.253Z,102722.84
2023-02-13T12:17:00.975Z,102715.81
2023-02-13T12:20:04.215Z,102707.53
2023-02-13T12:23:20.521Z,102716.66
2023-02-13T12:26:44.158Z,102711.84
2023-02-13T12:29:59.411Z,102719.34
2023-02-13T12:33:03.332Z,102714.63
2023-02-13T12:36:16.675Z,102713.97
2023-02-13T12:39:42.700Z,102708.75
2023-02-13T12:42:47.585Z,102713.22
2023-02-13T12:45:52.412Z,102711.94
2023-02-13T12:49:13.187Z,102707.41
2023-02-13T12:52:15.367Z,102712.97
2023-02-13T12:55:54.305Z,102707.69
2023-02-13T12:59:05.123Z,102707.84
2023-02-13T13:02:34.769Z,102716.81
2023-02-13T13:05:50.669Z,102709.22
2023-02-13T13:09:05.750Z,102695.97
2023-02-13T13:12:23.064Z,102691.28
2023-02-13T13:15:50.534Z,102696.69
2023-02-13T13:19:02.350Z,102694.25
2023-02-13T13:22:19.587Z,102687.44
2023-02-13T13:25:29.769Z,102694.69
2023-02-13T13:28:39.512Z,102688.84
2023-02-13T13:31:53.507Z,102676.75
2023-02-13T13:34:57.000Z,102662.34
2023-02-13T13:38:06.760Z,102671.31
2023-02-13T13:41:30.882Z,102679.16
2023-02-13T13:44:38.671Z,102674.47
2023-02-13T13:47:56.216Z,102671.59
2023-02-13T13:50:59.466Z,102659.63
2023-02-13T13:54:08.251Z,102667.88
2023-02-13T13:57:12.456Z,102667.31
2023-02-13T14:00:16.484Z,102660.78
2023-02-13T14:03:24.989Z,102660.91
2023-02-13T14:06:45.598Z,102656.34
2023-02-13T14:09:47.898Z,102655.50
2023-02-13T14:13:10.394Z,102653.34
2023-02-13T14:16:12.713Z,102647.81
2023-02-13T14:19:39.164Z,102652.50
2023-02-13T14:22:44.861Z,102651.50
2023-02-13T14:25:47.789Z,102648.63
2023-02-13T14:28:50.432Z,102653.44
2023-02-13T14:32:01.899Z,102643.53
2023-02-13T14:35:17.158Z,102656.00
2023-02-13T14:38:25.310Z,102653.44
2023-02-13T14:41:46.336Z,102640.22
2023-02-13T14:44:53.605Z,102639.06
2023-02-13T14:47:57.725Z,102633.09
2023-02-13T14:51:05.753Z,102614.00
2023-02-13T14:54:32.419Z,102643.63
2023-02-13T14:57:44.260Z,102639.63
2023-02-13T15:00:53.719Z,102624.94
2023-02-13T15:04:12.876Z,102636.06
2023-02-13T15:07:18.045Z,102635.34
2023-02-13T15:10:49.692Z,102635.16
2023-02-13T15:13:51.682Z,102628.44
2023-02-13T15:17:18.403Z,102623.28
2023-02-13T15:20:26.562Z,102628.13
2023-02-13T15:23:34.873Z,102563.19
2023-02-13T15:26:37.144Z,102632.09
2023-02-13T15:29:54.466Z,102637.78
2023-02-13T15:33:21.486Z,102629.34
2023-02-13T15:36:26.468Z,102633.53
2023-02-13T15:39:31.359Z,102631.88
2023-02-13T15:42:33.537Z,102629.16
2023-02-13T15:45:35.605Z,102633.22
2023-02-13T15:48:38.146Z,102624.56
2023-02-13T15:51:40.272Z,102606.13
2023-02-13T15:54:50.003Z,102616.41
2023-02-13T15:57:55.146Z,102595.28
2023-02-13T16:01:01.651Z,102602.81
2023-02-13T16:04:07.655Z,102599.13
2023-02-13T16:07:13.251Z,102604.84
2023-02-13T16:10:31.425Z,102604.81
2023-02-13T16:13:33.626Z,102593.69
2023-02-13T16:16:53.318Z,102592.84
2023-02-13T16:20:00.152Z,102596.16
2023-02-13T16:23:06.594Z,102582.19
2023-02-13T16:26:15.646Z,102589.50
2023-02-13T16:29:23.879Z,102592.75
2023-02-13T16:32:32.218Z,102587.28
2023-02-13T16:35:40.873Z,102580.59
2023-02-13T16:38:47.796Z,102596.00
2023-02-13T16:41:50.816Z,102596.63
2023-02-13T16:45:23.065Z,102603.25
2023-02-13T16:48:25.372Z,102571.78
2023-02-13T16:51:30.473Z,102587.91
2023-02-13T16:54:44.382Z,102586.50
2023-02-13T16:57:46.647Z,102586.63
2023-02-13T17:00:51.438Z,102548.66
2023-02-13T17:03:54.354Z,102574.41
2023-02-13T17:06:56.503Z,102574.44
2023-02-13T17:10:05.489Z,102580.44
2023-02-13T17:13:13.131Z,102577.09
2023-02-13T17:16:15.267Z,102578.09
2023-02-13T17:19:17.292Z,102558.06
2023-02-13T17:22:30.856Z,102547.41
2023-02-13T17:25:35.967Z,102543.59
2023-02-13T17:28:38.156Z,102533.25
2023-02-13T17:31:41.817Z,102508.53
2023-02-13T17:34:46.630Z,102522.88
2023-02-13T17:37:48.699Z,102525.75
2023-02-13T17:40:50.881Z,102522.06
2023-02-13T17:43:52.984Z,102515.75
2023-02-13T17:46:55.299Z,102509.53
2023-02-13T17:50:08.528Z,102514.53
2023-02-13T17:53:32.913Z,102525.63
2023-02-13T17:56:35.055Z,102519.97
2023-02-13T17:59:37.788Z,102506.16
2023-02-13T18:02:39.897Z,102493.19
2023-02-13T18:05:42.114Z,102497.84
2023-02-13T18:08:44.092Z,102497.00
2023-02-13T18:12:04.529Z,102504.22
2023-02-13T18:15:09.827Z,102504.31
2023-02-13T18:18:16.129Z,102499.59
2023-02-13T18:21:21.724Z,102489.41
2023-02-13T18:24:28.732Z,102485.75
2023-02-13T18:27:30.992Z,102478.31
2023-02-13T18:30:33.197Z,102459.69
2023-02-13T18:33:36.212Z,102477.22
2023-02-13T18:36:38.710Z,102465.59
2023-02-13T18:39:40.740Z,102467.25
2023-02-13T18:42:42.775Z,102473.81
2023-02-13T18:45:46.083Z,102467.56
2023-02-13T18:48:48.422Z,102476.94
2023-02-13T18:51:51.381Z,102467.41
2023-02-13T18:54:54.548Z,102469.94
2023-02-13T18:57:57.542Z,102465.72
2023-02-13T19:01:11.497Z,102475.56
2023-02-13T19:04:13.626Z,102475.75
2023-02-13T19:07:17.033Z,102482.69
2023-02-13T19:10:19.202Z,102474.00
2023-02-13T19:13:22.813Z,102482.28
2023-02-13T19:16:25.222Z,102488.81
2023-02-13T19:19:31.453Z,102485.97
2023-02-13T19:22:34.048Z,102485.63
2023-02-13T19:25:38.222Z,102495.63
2023-02-13T19:28:41.084Z,102491.94
2023-02-13T19:31:43.315Z,102494.63
2023-02-13T19:34:48.610Z,102480.56
2023-02-13T19:37:50.572Z,102508.34
2023-02-13T19:40:54.385Z,102527.16
2023-02-13T19:43:56.805Z,102504.78
2023-02-13T19:46:58.924Z,102489.53
2023-02-13T19:50:01.037Z,102501.69
2023-02-13T19:53:04.441Z,102496.47
2023-02-13T19:56:09.073Z,102520.22
2023-02-13T19:59:13.589Z,102533.91
2023-02-13T20:02:17.343Z,102515.63
2023-02-13T20:05:19.740Z,102530.59
2023-02-13T20:08:21.757Z,102533.44
2023-02-13T20:11:24.029Z,102517.50
2023-02-13T20:14:27.207Z,102503.00
2023-02-13T20:17:29.230Z,102521.19
2023-02-13T20:20:31.211Z,102517.38
2023-02-13T20:23:33.385Z,102525.03
2023-02-13T20:26:40.674Z,102515.09
2023-02-13T20:29:58.870Z,102522.94
2023-02-13T20:33:09.099Z,102526.63
2023-02-13T20:36:14.234Z,102509.16
2023-02-13T20:39:17.265Z,102511.88
2023-02-13T20:42:23.886Z,102512.75
2023-02-13T20:45:28.849Z,102528.44
2023-02-13T20:48:38.939Z,102516.06
2023-02-13T20:51:42.914Z,102530.44
2023-02-13T20:54:47.227Z,102522.44
2023-02-13T20:57:54.475Z,102530.69
2023-02-13T21:01:03.205Z,102536.53
2023-02-13T21:04:11.495Z,102515.44
2023-02-13T21:07:15.065Z,102514.19
2023-02-13T21:10:18.161Z,102513.34
2023-02-13T21:13:20.214Z,102513.53
2023-02-13T21:16:25.363Z,102504.09
2023-02-13T21:19:27.455Z,102508.97
2023-02-13T21:22:31.324Z,102518.50
2023-02-13T21:25:33.632Z,102505.69
2023-02-13T21:28:37.043Z,102506.53
2023-02-13T21:31:49.199Z,102508.41
2023-02-13T21:34:51.475Z,102500.75
2023-02-13T21:37:55.200Z,102488.28
2023-02-13T21:41:13.784Z,102465.16
2023-02-13T21:44:16.932Z,102458.72
2023-02-13T21:47:19.117Z,102461.78
2023-02-13T21:50:22.394Z,102464.06
2023-02-13T21:53:24.464Z,102459.44
2023-02-13T21:56:29.765Z,102455.22
2023-02-13T21:59:32.820Z,102443.38
2023-02-13T22:02:34.954Z,102414.56
2023-02-13T22:05:37.065Z,102422.72
2023-02-13T22:08:39.494Z,102425.97
2023-02-13T22:11:44.729Z,102420.97
2023-02-13T22:14:46.704Z,102420.63
2023-02-13T22:17:48.767Z,102421.56
2023-02-13T22:20:51.428Z,102406.75
2023-02-13T22:23:53.473Z,102411.50
2023-02-13T22:26:55.834Z,102411.75
2023-02-13T22:29:57.866Z,102405.47
2023-02-13T22:33:00.229Z,102405.88
2023-02-13T22:36:02.400Z,102405.13
2023-02-13T22:39:05.368Z,102379.44
2023-02-13T22:42:07.503Z,102390.41
2023-02-13T22:45:09.822Z,102378.47
2023-02-13T22:48:11.848Z,102380.63
2023-02-13T22:51:17.656Z,102363.28
2023-02-13T22:54:19.726Z,102360.56
2023-02-13T22:57:21.918Z,102361.94
2023-02-13T23:00:24.303Z,102342.84
2023-02-13T23:03:26.368Z,102334.59
2023-02-13T23:06:29.039Z,102324.97
2023-02-13T23:09:31.080Z,102333.28
2023-02-13T23:12:40.707Z,102331.00
2023-02-13T23:15:42.976Z,102324.56
2023-02-13T23:18:50.152Z,102306.22
2023-02-13T23:21:52.221Z,102318.69
2023-02-13T23:24:54.272Z,102306.72
2023-02-13T23:27:59.408Z,102320.81
2023-02-13T23:31:03.123Z,102326.66
2023-02-13T23:34:05.437Z,102328.69
2023-02-13T23:37:07.447Z,102324.97
2023-02-13T23:40:12.248Z,102317.09
2023-02-13T23:43:14.257Z,102311.06
2023-02-13T23:46:16.241Z,102294.72
2023-02-13T23:49:18.595Z,102303.84
2023-02-13T23:52:20.949Z,102301.28
2023-02-13T23:55:23.049Z,102303.00
2023-02-13T23:58:25.084Z,102297.91
